sensor_id;sensor_type;location;lat;lon;timestamp;temperature;humidity
2112;DHT22;1062;52.538;13.400;2022-11-20T00:01:10;0.90;99.90
2112;DHT22;1062;52.538;13.400;2022-11-20T00:03:35;0.90;99.90
2112;DHT22;1062;52.538;13.400;2022-11-20T00:06:03;0.90;99.90
2112;DHT22;1062;52.538;13.400;2022-11-20T00:08:29;0.90;99.90
2112;DHT22;1062;52.538;13.400;2022-11-20T00:10:54;0.90;99.90
2112;DHT22;1062;52.538;13.400;2022-11-20T00:13:20;0.80;99.90
2112;DHT22;1062;52.538;13.400;2022-11-20T00:15:45;0.80;99.90
2112;DHT22;1062;52.538;13.400;2022-11-20T00:18:11;0.70;99.90
2112;DHT22;1062;52.538;13.400;2022-11-20T00:20:36;0.80;99.90
2112;DHT22;1062;52.538;13.400;2022-11-20T00:23:02;0.80;99.90
2112;DHT22;1062;52.538;13.400;2022-11-20T00:25:28;0.90;99.90
2112;DHT22;1062;52.538;13.400;2022-11-20T00:27:53;0.80;99.90
2112;DHT22;1062;52.538;13.400;2022-11-20T00:30:19;0.80;99.90
2112;DHT22;1062;52.538;13.400;2022-11-20T00:32:44;0.80;99.90
2112;DHT22;1062;52.538;13.400;2022-11-20T00:35:10;0.80;99.90
2112;DHT22;1062;52.538;13.400;2022-11-20T00:37:35;0.90;99.90
2112;DHT22;1062;52.538;13.400;2022-11-20T00:40:01;0.90;99.90
2112;DHT22;1062;52.538;13.400;2022-11-20T00:42:27;0.80;99.90
2112;DHT22;1062;52.538;13.400;2022-11-20T00:44:52;0.80;99.90
2112;DHT22;1062;52.538;13.400;2022-11-20T00:47:18;0.80;99.90
2112;DHT22;1062;52.538;13.400;2022-11-20T00:49:43;0.80;99.90
2112;DHT22;1062;52.538;13.400;2022-11-20T00:52:09;0.80;99.90
2112;DHT22;1062;52.538;13.400;2022-11-20T00:54:34;0.80;99.90
2112;DHT22;1062;52.538;13.400;2022-11-20T00:57:00;0.80;99.90
2112;DHT22;1062;52.538;13.400;2022-11-20T00:59:26;0.80;99.90
2112;DHT22;1062;52.538;13.400;2022-11-20T01:01:51;0.80;99.90
2112;DHT22;1062;52.538;13.400;2022-11-20T01:04:17;0.80;99.90
2112;DHT22;1062;52.538;13.400;2022-11-20T01:06:42;0.80;99.90
2112;DHT22;1062;52.538;13.400;2022-11-20T01:09:13;0.90;99.90
2112;DHT22;1062;52.538;13.400;2022-11-20T01:11:42;0.90;99.90
2112;DHT22;1062;52.538;13.400;2022-11-20T01:14:14;0.90;99.90
2112;DHT22;1062;52.538;13.400;2022-11-20T01:16:43;0.90;99.90
2112;DHT22;1062;52.538;13.400;2022-11-20T01:19:17;0.80;99.90
2112;DHT22;1062;52.538;13.400;2022-11-20T01:21:44;0.90;99.90
2112;DHT22;1062;52.538;13.400;2022-11-20T01:24:15;0.80;99.90
2112;DHT22;1062;52.538;13.400;2022-11-20T01:26:42;0.90;99.90
2112;DHT22;1062;52.538;13.400;2022-11-20T01:29:20;0.90;99.90
2112;DHT22;1062;52.538;13.400;2022-11-20T01:31:46;0.90;99.90
2112;DHT22;1062;52.538;13.400;2022-11-20T01:34:14;0.90;99.90
2112;DHT22;1062;52.538;13.400;2022-11-20T01:36:41;0.80;99.90
2112;DHT22;1062;52.538;13.400;2022-11-20T01:39:16;0.90;99.90
2112;DHT22;1062;52.538;13.400;2022-11-20T01:41:43;0.90;99.90
2112;DHT22;1062;52.538;13.400;2022-11-20T01:44:53;0.90;99.90
2112;DHT22;1062;52.538;13.400;2022-11-20T01:47:33;0.80;99.90
2112;DHT22;1062;52.538;13.400;2022-11-20T01:52:44;0.90;99.90
2112;DHT22;1062;52.538;13.400;2022-11-20T01:55:25;0.80;99.90
2112;DHT22;1062;52.538;13.400;2022-11-20T01:57:51;0.90;99.90
2112;DHT22;1062;52.538;13.400;2022-11-20T02:00:19;0.80;99.90
2112;DHT22;1062;52.538;13.400;2022-11-20T02:03:04;0.90;99.90
2112;DHT22;1062;52.538;13.400;2022-11-20T02:08:28;0.80;99.90
2112;DHT22;1062;52.538;13.400;2022-11-20T02:10:54;0.90;99.90
2112;DHT22;1062;52.538;13.400;2022-11-20T02:13:19;0.90;99.90
2112;DHT22;1062;52.538;13.400;2022-11-20T02:16:04;0.80;99.90
2112;DHT22;1062;52.538;13.400;2022-11-20T02:18:33;0.90;99.90
2112;DHT22;1062;52.538;13.400;2022-11-20T02:21:07;0.90;99.90
2112;DHT22;1062;52.538;13.400;2022-11-20T02:26:56;0.70;99.90
2112;DHT22;1062;52.538;13.400;2022-11-20T02:29:44;0.70;99.90
2112;DHT22;1062;52.538;13.400;2022-11-20T02:32:26;0.70;99.90
2112;DHT22;1062;52.538;13.400;2022-11-20T02:34:52;0.70;99.90
2112;DHT22;1062;52.538;13.400;2022-11-20T02:37:19;0.70;99.90
2112;DHT22;1062;52.538;13.400;2022-11-20T02:39:46;0.70;99.90
2112;DHT22;1062;52.538;13.400;2022-11-20T02:42:13;0.70;99.90
2112;DHT22;1062;52.538;13.400;2022-11-20T02:44:39;0.70;99.90
2112;DHT22;1062;52.538;13.400;2022-11-20T02:47:04;0.70;99.90
2112;DHT22;1062;52.538;13.400;2022-11-20T02:49:30;0.70;99.90
2112;DHT22;1062;52.538;13.400;2022-11-20T02:51:56;0.70;99.90
2112;DHT22;1062;52.538;13.400;2022-11-20T02:54:21;0.70;99.90
2112;DHT22;1062;52.538;13.400;2022-11-20T02:56:47;0.70;99.90
2112;DHT22;1062;52.538;13.400;2022-11-20T02:59:13;0.70;99.90
2112;DHT22;1062;52.538;13.400;2022-11-20T03:01:38;0.80;99.90
2112;DHT22;1062;52.538;13.400;2022-11-20T03:04:04;0.90;99.90
2112;DHT22;1062;52.538;13.400;2022-11-20T03:06:30;0.80;99.90
2112;DHT22;1062;52.538;13.400;2022-11-20T03:08:55;0.80;99.90
2112;DHT22;1062;52.538;13.400;2022-11-20T03:11:21;0.80;99.90
2112;DHT22;1062;52.538;13.400;2022-11-20T03:13:46;0.80;99.90
2112;DHT22;1062;52.538;13.400;2022-11-20T03:16:14;0.80;99.90
2112;DHT22;1062;52.538;13.400;2022-11-20T03:18:41;0.70;99.90
2112;DHT22;1062;52.538;13.400;2022-11-20T03:21:08;0.70;99.90
2112;DHT22;1062;52.538;13.400;2022-11-20T03:23:34;0.80;99.90
2112;DHT22;1062;52.538;13.400;2022-11-20T03:26:19;0.80;99.90
2112;DHT22;1062;52.538;13.400;2022-11-20T03:29:04;0.80;99.90
2112;DHT22;1062;52.538;13.400;2022-11-20T03:31:35;0.70;99.90
2112;DHT22;1062;52.538;13.400;2022-11-20T03:34:01;0.70;99.90
2112;DHT22;1062;52.538;13.400;2022-11-20T03:36:29;0.80;99.90
2112;DHT22;1062;52.538;13.400;2022-11-20T03:38:55;0.80;99.90
2112;DHT22;1062;52.538;13.400;2022-11-20T03:41:24;0.70;99.90
2112;DHT22;1062;52.538;13.400;2022-11-20T03:43:51;0.80;99.90
2112;DHT22;1062;52.538;13.400;2022-11-20T03:46:17;0.80;99.90
2112;DHT22;1062;52.538;13.400;2022-11-20T03:48:43;0.70;99.90
2112;DHT22;1062;52.538;13.400;2022-11-20T03:51:17;0.80;99.90
2112;DHT22;1062;52.538;13.400;2022-11-20T03:53:44;0.70;99.90
2112;DHT22;1062;52.538;13.400;2022-11-20T03:56:12;0.70;99.90
2112;DHT22;1062;52.538;13.400;2022-11-20T03:58:39;0.70;99.90
2112;DHT22;1062;52.538;13.400;2022-11-20T04:03:32;0.80;99.90
2112;DHT22;1062;52.538;13.400;2022-11-20T04:06:03;0.80;99.90
2112;DHT22;1062;52.538;13.400;2022-11-20T04:08:30;0.80;99.90
2112;DHT22;1062;52.538;13.400;2022-11-20T04:10:55;0.70;99.90
2112;DHT22;1062;52.538;13.400;2022-11-20T04:13:21;0.70;99.90
2112;DHT22;1062;52.538;13.400;2022-11-20T04:15:46;0.70;99.90
2112;DHT22;1062;52.538;13.400;2022-11-20T04:18:12;0.70;99.90
2112;DHT22;1062;52.538;13.400;2022-11-20T04:20:37;0.70;99.90
2112;DHT22;1062;52.538;13.400;2022-11-20T04:23:03;0.70;99.90
2112;DHT22;1062;52.538;13.400;2022-11-20T04:25:29;0.60;99.90
2112;DHT22;1062;52.538;13.400;2022-11-20T04:27:54;0.60;99.90
2112;DHT22;1062;52.538;13.400;2022-11-20T04:30:20;0.50;99.90
2112;DHT22;1062;52.538;13.400;2022-11-20T04:32:45;0.60;99.90
2112;DHT22;1062;52.538;13.400;2022-11-20T04:35:11;0.60;99.90
2112;DHT22;1062;52.538;13.400;2022-11-20T04:37:37;0.60;99.90
2112;DHT22;1062;52.538;13.400;2022-11-20T04:40:02;0.50;99.90
2112;DHT22;1062;52.538;13.400;2022-11-20T04:42:28;0.50;99.90
2112;DHT22;1062;52.538;13.400;2022-11-20T04:44:54;0.50;99.90
2112;DHT22;1062;52.538;13.400;2022-11-20T04:47:20;0.60;99.90
2112;DHT22;1062;52.538;13.400;2022-11-20T04:49:46;0.50;99.90
2112;DHT22;1062;52.538;13.400;2022-11-20T04:52:11;0.50;99.90
2112;DHT22;1062;52.538;13.400;2022-11-20T04:54:37;0.50;99.90
2112;DHT22;1062;52.538;13.400;2022-11-20T04:57:02;0.50;99.90
2112;DHT22;1062;52.538;13.400;2022-11-20T04:59:28;0.50;99.90
2112;DHT22;1062;52.538;13.400;2022-11-20T05:01:54;0.50;99.90
2112;DHT22;1062;52.538;13.400;2022-11-20T05:04:19;0.50;99.90
2112;DHT22;1062;52.538;13.400;2022-11-20T05:06:45;0.50;99.90
2112;DHT22;1062;52.538;13.400;2022-11-20T05:09:11;0.50;99.90
2112;DHT22;1062;52.538;13.400;2022-11-20T05:11:37;0.50;99.90
2112;DHT22;1062;52.538;13.400;2022-11-20T05:14:03;0.50;99.90
2112;DHT22;1062;52.538;13.400;2022-11-20T05:16:28;0.50;99.90
2112;DHT22;1062;52.538;13.400;2022-11-20T05:18:54;0.50;99.90
2112;DHT22;1062;52.538;13.400;2022-11-20T05:21:21;0.50;99.90
2112;DHT22;1062;52.538;13.400;2022-11-20T05:23:47;0.50;99.90
2112;DHT22;1062;52.538;13.400;2022-11-20T05:26:18;0.40;99.90
2112;DHT22;1062;52.538;13.400;2022-11-20T05:28:44;0.50;99.90
2112;DHT22;1062;52.538;13.400;2022-11-20T05:31:12;0.50;99.90
2112;DHT22;1062;52.538;13.400;2022-11-20T05:33:42;0.50;99.90
2112;DHT22;1062;52.538;13.400;2022-11-20T05:36:08;0.50;99.90
2112;DHT22;1062;52.538;13.400;2022-11-20T05:38:34;0.50;99.90
2112;DHT22;1062;52.538;13.400;2022-11-20T05:41:17;0.50;99.90
2112;DHT22;1062;52.538;13.400;2022-11-20T05:43:44;0.50;99.90
2112;DHT22;1062;52.538;13.400;2022-11-20T05:46:12;0.50;99.90
2112;DHT22;1062;52.538;13.400;2022-11-20T05:48:39;0.50;99.90
2112;DHT22;1062;52.538;13.400;2022-11-20T05:51:08;0.50;99.90
2112;DHT22;1062;52.538;13.400;2022-11-20T05:53:35;0.50;99.90
2112;DHT22;1062;52.538;13.400;2022-11-20T05:56:06;0.50;99.90
2112;DHT22;1062;52.538;13.400;2022-11-20T05:58:33;0.50;99.90
2112;DHT22;1062;52.538;13.400;2022-11-20T06:03:30;0.60;99.90
2112;DHT22;1062;52.538;13.400;2022-11-20T06:05:56;0.60;99.90
2112;DHT22;1062;52.538;13.400;2022-11-20T06:08:21;0.60;99.90
2112;DHT22;1062;52.538;13.400;2022-11-20T06:10:47;0.60;99.90
2112;DHT22;1062;52.538;13.400;2022-11-20T06:13:12;0.60;99.90
2112;DHT22;1062;52.538;13.400;2022-11-20T06:15:38;0.60;99.90
2112;DHT22;1062;52.538;13.400;2022-11-20T06:18:03;0.60;99.90
2112;DHT22;1062;52.538;13.400;2022-11-20T06:20:29;0.60;99.90
2112;DHT22;1062;52.538;13.400;2022-11-20T06:22:55;0.70;99.90
2112;DHT22;1062;52.538;13.400;2022-11-20T06:25:20;0.70;99.90
2112;DHT22;1062;52.538;13.400;2022-11-20T06:27:46;0.60;99.90
2112;DHT22;1062;52.538;13.400;2022-11-20T06:30:12;0.70;99.90
2112;DHT22;1062;52.538;13.400;2022-11-20T06:32:37;0.70;99.90
2112;DHT22;1062;52.538;13.400;2022-11-20T06:35:03;0.70;99.90
2112;DHT22;1062;52.538;13.400;2022-11-20T06:37:29;0.70;99.90
2112;DHT22;1062;52.538;13.400;2022-11-20T06:39:54;0.60;99.90
2112;DHT22;1062;52.538;13.400;2022-11-20T06:42:20;0.60;99.90
2112;DHT22;1062;52.538;13.400;2022-11-20T06:44:45;0.60;99.90
2112;DHT22;1062;52.538;13.400;2022-11-20T06:47:11;0.60;99.90
2112;DHT22;1062;52.538;13.400;2022-11-20T06:49:36;0.60;99.90
2112;DHT22;1062;52.538;13.400;2022-11-20T06:52:04;0.60;99.90
2112;DHT22;1062;52.538;13.400;2022-11-20T06:54:29;0.60;99.90
2112;DHT22;1062;52.538;13.400;2022-11-20T06:56:55;0.70;99.90
2112;DHT22;1062;52.538;13.400;2022-11-20T06:59:20;0.70;99.90
2112;DHT22;1062;52.538;13.400;2022-11-20T07:01:46;0.60;99.90
2112;DHT22;1062;52.538;13.400;2022-11-20T07:04:12;0.60;99.90
2112;DHT22;1062;52.538;13.400;2022-11-20T07:06:38;0.60;99.90
2112;DHT22;1062;52.538;13.400;2022-11-20T07:09:03;0.60;99.90
2112;DHT22;1062;52.538;13.400;2022-11-20T07:11:29;0.60;99.90
2112;DHT22;1062;52.538;13.400;2022-11-20T07:13:56;0.70;99.90
2112;DHT22;1062;52.538;13.400;2022-11-20T07:16:22;0.60;99.90
2112;DHT22;1062;52.538;13.400;2022-11-20T07:18:48;0.70;99.90
2112;DHT22;1062;52.538;13.400;2022-11-20T07:21:13;0.70;99.90
2112;DHT22;1062;52.538;13.400;2022-11-20T07:23:39;0.60;99.90
2112;DHT22;1062;52.538;13.400;2022-11-20T07:26:10;0.60;99.90
2112;DHT22;1062;52.538;13.400;2022-11-20T07:28:36;0.70;99.90
2112;DHT22;1062;52.538;13.400;2022-11-20T07:31:02;0.60;99.90
2112;DHT22;1062;52.538;13.400;2022-11-20T07:33:28;0.70;99.90
2112;DHT22;1062;52.538;13.400;2022-11-20T07:35:53;0.70;99.90
2112;DHT22;1062;52.538;13.400;2022-11-20T07:38:19;0.70;99.90
2112;DHT22;1062;52.538;13.400;2022-11-20T07:40:45;0.70;99.90
2112;DHT22;1062;52.538;13.400;2022-11-20T07:43:10;0.70;99.90
2112;DHT22;1062;52.538;13.400;2022-11-20T07:45:36;0.70;99.90
2112;DHT22;1062;52.538;13.400;2022-11-20T07:48:01;0.80;99.90
2112;DHT22;1062;52.538;13.400;2022-11-20T07:50:27;0.80;99.90
2112;DHT22;1062;52.538;13.400;2022-11-20T07:53:00;0.80;99.90
2112;DHT22;1062;52.538;13.400;2022-11-20T07:55:26;0.70;99.90
2112;DHT22;1062;52.538;13.400;2022-11-20T07:57:55;0.80;99.90
2112;DHT22;1062;52.538;13.400;2022-11-20T08:00:21;0.80;99.90
2112;DHT22;1062;52.538;13.400;2022-11-20T08:02:47;0.80;99.90
2112;DHT22;1062;52.538;13.400;2022-11-20T08:05:13;0.70;99.90
2112;DHT22;1062;52.538;13.400;2022-11-20T08:07:43;0.70;99.90
2112;DHT22;1062;52.538;13.400;2022-11-20T08:10:10;0.60;99.90
2112;DHT22;1062;52.538;13.400;2022-11-20T08:12:42;0.60;99.90
2112;DHT22;1062;52.538;13.400;2022-11-20T08:15:27;0.60;99.90
2112;DHT22;1062;52.538;13.400;2022-11-20T08:18:09;0.70;99.90
2112;DHT22;1062;52.538;13.400;2022-11-20T08:20:36;0.70;99.90
2112;DHT22;1062;52.538;13.400;2022-11-20T08:23:03;0.70;99.90
2112;DHT22;1062;52.538;13.400;2022-11-20T08:25:31;0.80;99.90
2112;DHT22;1062;52.538;13.400;2022-11-20T08:28:02;0.80;99.90
2112;DHT22;1062;52.538;13.400;2022-11-20T08:30:28;0.80;99.90
2112;DHT22;1062;52.538;13.400;2022-11-20T08:32:54;0.80;99.90
2112;DHT22;1062;52.538;13.400;2022-11-20T08:35:26;0.80;99.90
2112;DHT22;1062;52.538;13.400;2022-11-20T08:37:51;0.80;99.90
2112;DHT22;1062;52.538;13.400;2022-11-20T08:40:17;0.80;99.90
2112;DHT22;1062;52.538;13.400;2022-11-20T08:42:50;0.80;99.90
2112;DHT22;1062;52.538;13.400;2022-11-20T08:45:16;0.80;99.90
2112;DHT22;1062;52.538;13.400;2022-11-20T08:47:42;0.80;99.90
2112;DHT22;1062;52.538;13.400;2022-11-20T08:50:13;0.80;99.90
2112;DHT22;1062;52.538;13.400;2022-11-20T08:52:39;0.90;99.90
2112;DHT22;1062;52.538;13.400;2022-11-20T08:55:05;0.90;99.90
2112;DHT22;1062;52.538;13.400;2022-11-20T08:57:32;0.90;99.90
2112;DHT22;1062;52.538;13.400;2022-11-20T08:59:58;0.90;99.90
2112;DHT22;1062;52.538;13.400;2022-11-20T09:02:24;1.00;99.90
2112;DHT22;1062;52.538;13.400;2022-11-20T09:04:50;0.90;99.90
2112;DHT22;1062;52.538;13.400;2022-11-20T09:07:15;1.00;99.90
2112;DHT22;1062;52.538;13.400;2022-11-20T09:09:41;1.00;99.90
2112;DHT22;1062;52.538;13.400;2022-11-20T09:12:07;1.00;99.90
2112;DHT22;1062;52.538;13.400;2022-11-20T09:14:32;1.00;99.90
2112;DHT22;1062;52.538;13.400;2022-11-20T09:16:59;1.00;99.90
2112;DHT22;1062;52.538;13.400;2022-11-20T09:19:24;0.90;99.90
2112;DHT22;1062;52.538;13.400;2022-11-20T09:21:50;0.90;99.90
2112;DHT22;1062;52.538;13.400;2022-11-20T09:24:16;0.90;99.90
2112;DHT22;1062;52.538;13.400;2022-11-20T09:26:42;1.00;99.90
2112;DHT22;1062;52.538;13.400;2022-11-20T09:29:07;1.10;99.90
2112;DHT22;1062;52.538;13.400;2022-11-20T09:31:33;1.10;99.90
2112;DHT22;1062;52.538;13.400;2022-11-20T09:33:59;1.10;99.90
2112;DHT22;1062;52.538;13.400;2022-11-20T09:36:24;1.10;99.90
2112;DHT22;1062;52.538;13.400;2022-11-20T09:38:50;1.10;99.90
2112;DHT22;1062;52.538;13.400;2022-11-20T09:55:46;1.60;99.90
2112;DHT22;1062;52.538;13.400;2022-11-20T09:58:40;1.60;99.90
2112;DHT22;1062;52.538;13.400;2022-11-20T10:01:16;1.60;99.90
2112;DHT22;1062;52.538;13.400;2022-11-20T10:04:18;1.60;99.90
2112;DHT22;1062;52.538;13.400;2022-11-20T10:09:40;1.70;99.90
2112;DHT22;1062;52.538;13.400;2022-11-20T10:15:28;1.70;99.90
2112;DHT22;1062;52.538;13.400;2022-11-20T10:29:15;1.70;99.90
2112;DHT22;1062;52.538;13.400;2022-11-20T10:31:46;1.70;99.90
2112;DHT22;1062;52.538;13.400;2022-11-20T10:34:20;1.70;99.90
2112;DHT22;1062;52.538;13.400;2022-11-20T10:37:00;1.80;99.90
2112;DHT22;1062;52.538;13.400;2022-11-20T10:39:35;1.80;99.90
2112;DHT22;1062;52.538;13.400;2022-11-20T10:42:09;1.90;99.90
2112;DHT22;1062;52.538;13.400;2022-11-20T10:44:36;1.80;99.90
2112;DHT22;1062;52.538;13.400;2022-11-20T10:47:22;1.80;99.90
2112;DHT22;1062;52.538;13.400;2022-11-20T10:49:53;1.80;99.90
2112;DHT22;1062;52.538;13.400;2022-11-20T10:52:34;1.80;99.90
2112;DHT22;1062;52.538;13.400;2022-11-20T10:55:53;1.90;99.90
2112;DHT22;1062;52.538;13.400;2022-11-20T10:58:02;1.80;99.90
2112;DHT22;1062;52.538;13.400;2022-11-20T11:00:32;1.70;99.90
2112;DHT22;1062;52.538;13.400;2022-11-20T11:02:58;1.90;99.90
2112;DHT22;1062;52.538;13.400;2022-11-20T11:08:21;2.40;99.90
2112;DHT22;1062;52.538;13.400;2022-11-20T11:10:55;2.60;99.90
2112;DHT22;1062;52.538;13.400;2022-11-20T11:13:27;2.50;99.90
2112;DHT22;1062;52.538;13.400;2022-11-20T11:15:53;2.40;99.90
2112;DHT22;1062;52.538;13.400;2022-11-20T11:18:29;2.30;99.90
2112;DHT22;1062;52.538;13.400;2022-11-20T11:20:56;2.50;99.90
2112;DHT22;1062;52.538;13.400;2022-11-20T11:23:35;2.40;99.90
2112;DHT22;1062;52.538;13.400;2022-11-20T11:26:04;2.20;99.90
2112;DHT22;1062;52.538;13.400;2022-11-20T11:28:30;2.40;99.90
2112;DHT22;1062;52.538;13.400;2022-11-20T11:30:56;2.30;99.90
2112;DHT22;1062;52.538;13.400;2022-11-20T11:33:26;2.40;99.90
2112;DHT22;1062;52.538;13.400;2022-11-20T11:35:55;2.30;99.90
2112;DHT22;1062;52.538;13.400;2022-11-20T11:38:29;2.20;99.90
2112;DHT22;1062;52.538;13.400;2022-11-20T11:40:56;2.30;99.90
2112;DHT22;1062;52.538;13.400;2022-11-20T11:43:31;2.10;99.90
2112;DHT22;1062;52.538;13.400;2022-11-20T11:51:21;2.30;99.90
2112;DHT22;1062;52.538;13.400;2022-11-20T11:53:47;2.30;99.90
2112;DHT22;1062;52.538;13.400;2022-11-20T11:56:13;2.30;99.90
2112;DHT22;1062;52.538;13.400;2022-11-20T11:58:47;2.00;99.90
2112;DHT22;1062;52.538;13.400;2022-11-20T12:06:30;1.90;99.90
2112;DHT22;1062;52.538;13.400;2022-11-20T12:09:01;1.60;99.90
2112;DHT22;1062;52.538;13.400;2022-11-20T12:14:35;1.70;99.90
2112;DHT22;1062;52.538;13.400;2022-11-20T12:17:02;1.80;99.90
2112;DHT22;1062;52.538;13.400;2022-11-20T12:19:33;1.80;99.90
2112;DHT22;1062;52.538;13.400;2022-11-20T12:27:17;1.80;99.90
2112;DHT22;1062;52.538;13.400;2022-11-20T12:30:04;1.80;99.90
2112;DHT22;1062;52.538;13.400;2022-11-20T12:35:40;1.90;99.90
2112;DHT22;1062;52.538;13.400;2022-11-20T12:38:38;2.10;99.90
2112;DHT22;1062;52.538;13.400;2022-11-20T12:44:01;1.90;99.90
2112;DHT22;1062;52.538;13.400;2022-11-20T12:47:20;1.90;99.90
2112;DHT22;1062;52.538;13.400;2022-11-20T12:50:02;1.80;99.90
2112;DHT22;1062;52.538;13.400;2022-11-20T12:55:43;1.80;99.90
2112;DHT22;1062;52.538;13.400;2022-11-20T13:01:30;2.10;99.90
2112;DHT22;1062;52.538;13.400;2022-11-20T13:07:12;2.20;99.90
2112;DHT22;1062;52.538;13.400;2022-11-20T13:09:46;2.20;99.90
2112;DHT22;1062;52.538;13.400;2022-11-20T13:17:57;2.10;99.90
2112;DHT22;1062;52.538;13.400;2022-11-20T13:20:23;2.10;99.90
2112;DHT22;1062;52.538;13.400;2022-11-20T13:22:51;2.10;99.90
2112;DHT22;1062;52.538;13.400;2022-11-20T13:25:36;2.10;99.90
2112;DHT22;1062;52.538;13.400;2022-11-20T13:30:35;2.00;99.90
2112;DHT22;1062;52.538;13.400;2022-11-20T13:33:08;1.90;99.90
2112;DHT22;1062;52.538;13.400;2022-11-20T13:35:36;2.00;99.90
2112;DHT22;1062;52.538;13.400;2022-11-20T13:38:11;2.10;99.90
2112;DHT22;1062;52.538;13.400;2022-11-20T13:40:58;2.20;99.90
2112;DHT22;1062;52.538;13.400;2022-11-20T13:43:42;2.10;99.90
2112;DHT22;1062;52.538;13.400;2022-11-20T13:46:09;2.00;99.90
2112;DHT22;1062;52.538;13.400;2022-11-20T13:48:45;1.80;99.90
2112;DHT22;1062;52.538;13.400;2022-11-20T13:51:51;1.80;99.90
2112;DHT22;1062;52.538;13.400;2022-11-20T13:57:39;1.70;99.90
2112;DHT22;1062;52.538;13.400;2022-11-20T14:00:17;1.70;99.90
2112;DHT22;1062;52.538;13.400;2022-11-20T14:02:44;1.70;99.90
2112;DHT22;1062;52.538;13.400;2022-11-20T14:05:22;1.70;99.90
2112;DHT22;1062;52.538;13.400;2022-11-20T14:07:49;1.60;99.90
2112;DHT22;1062;52.538;13.400;2022-11-20T14:10:21;1.70;99.90
2112;DHT22;1062;52.538;13.400;2022-11-20T14:12:47;1.60;99.90
2112;DHT22;1062;52.538;13.400;2022-11-20T14:15:29;1.60;99.90
2112;DHT22;1062;52.538;13.400;2022-11-20T14:17:55;1.70;99.90
2112;DHT22;1062;52.538;13.400;2022-11-20T14:20:24;1.70;99.90
2112;DHT22;1062;52.538;13.400;2022-11-20T14:22:52;1.70;99.90
2112;DHT22;1062;52.538;13.400;2022-11-20T14:28:00;1.50;99.90
2112;DHT22;1062;52.538;13.400;2022-11-20T14:30:28;1.60;99.90
2112;DHT22;1062;52.538;13.400;2022-11-20T14:32:57;1.50;99.90
2112;DHT22;1062;52.538;13.400;2022-11-20T14:35:35;1.50;99.90
2112;DHT22;1062;52.538;13.400;2022-11-20T14:38:02;1.40;99.90
2112;DHT22;1062;52.538;13.400;2022-11-20T14:40:31;1.40;99.90
2112;DHT22;1062;52.538;13.400;2022-11-20T14:42:58;1.50;99.90
2112;DHT22;1062;52.538;13.400;2022-11-20T14:45:25;1.50;99.90
2112;DHT22;1062;52.538;13.400;2022-11-20T14:47:52;1.50;99.90
2112;DHT22;1062;52.538;13.400;2022-11-20T14:50:22;1.50;99.90
2112;DHT22;1062;52.538;13.400;2022-11-20T14:52:53;1.50;99.90
2112;DHT22;1062;52.538;13.400;2022-11-20T14:58:03;1.40;99.90
2112;DHT22;1062;52.538;13.400;2022-11-20T15:00:31;1.40;99.90
2112;DHT22;1062;52.538;13.400;2022-11-20T15:02:58;1.40;99.90
2112;DHT22;1062;52.538;13.400;2022-11-20T15:05:44;1.40;99.90
2112;DHT22;1062;52.538;13.400;2022-11-20T15:08:11;1.40;99.90
2112;DHT22;1062;52.538;13.400;2022-11-20T15:10:37;1.40;99.90
2112;DHT22;1062;52.538;13.400;2022-11-20T15:13:12;1.40;99.90
2112;DHT22;1062;52.538;13.400;2022-11-20T15:15:48;1.40;99.90
2112;DHT22;1062;52.538;13.400;2022-11-20T15:18:16;1.50;99.90
2112;DHT22;1062;52.538;13.400;2022-11-20T15:20:43;1.40;99.90
2112;DHT22;1062;52.538;13.400;2022-11-20T15:23:11;1.30;99.90
2112;DHT22;1062;52.538;13.400;2022-11-20T15:25:38;1.20;99.90
2112;DHT22;1062;52.538;13.400;2022-11-20T15:28:04;1.30;99.90
2112;DHT22;1062;52.538;13.400;2022-11-20T15:30:37;1.30;99.90
2112;DHT22;1062;52.538;13.400;2022-11-20T15:33:03;1.40;99.90
2112;DHT22;1062;52.538;13.400;2022-11-20T15:35:28;1.40;99.90
2112;DHT22;1062;52.538;13.400;2022-11-20T15:37:54;1.40;99.90
2112;DHT22;1062;52.538;13.400;2022-11-20T15:40:19;1.30;99.90
2112;DHT22;1062;52.538;13.400;2022-11-20T15:42:45;1.30;99.90
2112;DHT22;1062;52.538;13.400;2022-11-20T15:45:33;1.30;99.90
2112;DHT22;1062;52.538;13.400;2022-11-20T15:48:00;1.30;99.90
2112;DHT22;1062;52.538;13.400;2022-11-20T15:50:33;1.30;99.90
2112;DHT22;1062;52.538;13.400;2022-11-20T15:52:59;1.40;99.90
2112;DHT22;1062;52.538;13.400;2022-11-20T15:55:25;1.40;99.90
2112;DHT22;1062;52.538;13.400;2022-11-20T15:57:50;1.30;99.90
2112;DHT22;1062;52.538;13.400;2022-11-20T16:00:16;1.30;99.90
2112;DHT22;1062;52.538;13.400;2022-11-20T16:02:42;1.30;99.90
2112;DHT22;1062;52.538;13.400;2022-11-20T16:05:12;1.10;99.90
2112;DHT22;1062;52.538;13.400;2022-11-20T16:07:39;1.00;99.90
2112;DHT22;1062;52.538;13.400;2022-11-20T16:10:04;0.90;99.90
2112;DHT22;1062;52.538;13.400;2022-11-20T16:12:30;0.80;99.90
2112;DHT22;1062;52.538;13.400;2022-11-20T16:15:14;0.80;99.90
2112;DHT22;1062;52.538;13.400;2022-11-20T16:17:58;0.70;99.90
2112;DHT22;1062;52.538;13.400;2022-11-20T16:20:23;0.60;99.90
2112;DHT22;1062;52.538;13.400;2022-11-20T16:22:49;0.50;99.90
2112;DHT22;1062;52.538;13.400;2022-11-20T16:25:15;0.40;99.90
2112;DHT22;1062;52.538;13.400;2022-11-20T16:27:40;0.40;99.90
2112;DHT22;1062;52.538;13.400;2022-11-20T16:30:06;0.40;99.90
2112;DHT22;1062;52.538;13.400;2022-11-20T16:32:32;0.40;99.90
2112;DHT22;1062;52.538;13.400;2022-11-20T16:34:57;0.30;99.90
2112;DHT22;1062;52.538;13.400;2022-11-20T16:37:23;0.20;99.90
2112;DHT22;1062;52.538;13.400;2022-11-20T16:39:49;0.20;99.90
2112;DHT22;1062;52.538;13.400;2022-11-20T16:42:14;0.20;99.90
2112;DHT22;1062;52.538;13.400;2022-11-20T16:44:40;0.20;99.90
2112;DHT22;1062;52.538;13.400;2022-11-20T16:47:05;0.30;99.90
2112;DHT22;1062;52.538;13.400;2022-11-20T16:49:31;0.20;99.90
2112;DHT22;1062;52.538;13.400;2022-11-20T16:51:58;0.10;99.90
2112;DHT22;1062;52.538;13.400;2022-11-20T16:54:23;0.20;99.90
2112;DHT22;1062;52.538;13.400;2022-11-20T16:56:49;0.20;99.90
2112;DHT22;1062;52.538;13.400;2022-11-20T16:59:17;0.10;99.90
2112;DHT22;1062;52.538;13.400;2022-11-20T17:01:43;0.10;99.90
2112;DHT22;1062;52.538;13.400;2022-11-20T17:04:09;0.20;99.90
2112;DHT22;1062;52.538;13.400;2022-11-20T17:06:36;0.30;99.90
2112;DHT22;1062;52.538;13.400;2022-11-20T17:09:03;0.40;99.90
2112;DHT22;1062;52.538;13.400;2022-11-20T17:11:29;0.40;99.90
2112;DHT22;1062;52.538;13.400;2022-11-20T17:13:56;0.50;99.90
2112;DHT22;1062;52.538;13.400;2022-11-20T17:16:23;0.50;99.90
2112;DHT22;1062;52.538;13.400;2022-11-20T17:18:49;0.50;99.90
2112;DHT22;1062;52.538;13.400;2022-11-20T17:21:15;0.50;99.90
2112;DHT22;1062;52.538;13.400;2022-11-20T17:23:43;0.60;99.90
2112;DHT22;1062;52.538;13.400;2022-11-20T17:26:19;0.60;99.90
2112;DHT22;1062;52.538;13.400;2022-11-20T17:28:55;0.60;99.90
2112;DHT22;1062;52.538;13.400;2022-11-20T17:31:22;0.60;99.90
2112;DHT22;1062;52.538;13.400;2022-11-20T17:33:48;0.70;99.90
2112;DHT22;1062;52.538;13.400;2022-11-20T17:36:15;0.70;99.90
2112;DHT22;1062;52.538;13.400;2022-11-20T17:38:42;0.80;99.90
2112;DHT22;1062;52.538;13.400;2022-11-20T17:41:13;0.80;99.90
2112;DHT22;1062;52.538;13.400;2022-11-20T17:43:40;0.80;99.90
2112;DHT22;1062;52.538;13.400;2022-11-20T17:46:16;0.90;99.90
2112;DHT22;1062;52.538;13.400;2022-11-20T17:48:43;0.90;99.90
2112;DHT22;1062;52.538;13.400;2022-11-20T17:51:15;0.90;99.90
2112;DHT22;1062;52.538;13.400;2022-11-20T17:53:43;0.90;99.90